createdAt,value
2022-12-06T00:01:32.475Z,100507.38
2022-12-06T00:06:40.814Z,100511.63
2022-12-06T00:11:43.478Z,100503.09
2022-12-06T00:16:44.797Z,100508.25
2022-12-06T00:21:47.244Z,100499.66
2022-12-06T00:26:51.052Z,100510.88
2022-12-06T00:31:52.312Z,100509.97
2022-12-06T00:36:53.257Z,100511.72
2022-12-06T00:41:57.358Z,100507.50
2022-12-06T00:46:58.244Z,100506.63
2022-12-06T00:51:59.099Z,100502.28
2022-12-06T00:57:01.404Z,100502.22
2022-12-06T01:02:02.309Z,100498.72
2022-12-06T01:07:03.190Z,100498.78
2022-12-06T01:12:05.511Z,100501.38
2022-12-06T01:17:06.361Z,100503.94
2022-12-06T01:22:07.182Z,100490.09
2022-12-06T01:27:09.311Z,100475.50
2022-12-06T01:32:10.167Z,100466.03
2022-12-06T01:37:10.984Z,100462.53
2022-12-06T01:42:14.312Z,100464.25
2022-12-06T01:47:19.723Z,100453.00
2022-12-06T01:52:24.767Z,100456.38
2022-12-06T01:57:27.099Z,100448.66
2022-12-06T02:02:28.135Z,100443.47
2022-12-06T02:07:30.588Z,100433.16
2022-12-06T02:12:32.770Z,100420.22
2022-12-06T02:17:42.926Z,100414.19
2022-12-06T02:23:14.358Z,100403.94
2022-12-06T02:28:32.782Z,100409.94
2022-12-06T02:33:42.073Z,100411.66
2022-12-06T02:38:48.161Z,100403.00
2022-12-06T02:43:54.852Z,100398.63
2022-12-06T02:48:59.537Z,100392.63
2022-12-06T02:54:03.628Z,100390.09
2022-12-06T02:59:05.669Z,100385.81
2022-12-06T03:04:31.614Z,100391.81
2022-12-06T03:09:49.468Z,100380.66
2022-12-06T03:14:57.005Z,100381.50
2022-12-06T03:20:05.999Z,100379.81
2022-12-06T03:25:09.125Z,100378.06
2022-12-06T03:30:13.808Z,100382.41
2022-12-06T03:35:20.671Z,100378.13
2022-12-06T03:40:25.630Z,100375.53
2022-12-06T03:45:35.217Z,100364.34
2022-12-06T03:50:42.268Z,100367.78
2022-12-06T03:55:43.464Z,100365.22
2022-12-06T04:00:44.234Z,100360.06
2022-12-06T04:05:46.405Z,100359.19
2022-12-06T04:10:47.181Z,100358.34
2022-12-06T04:15:48.190Z,100359.16
2022-12-06T04:21:15.345Z,100355.75
2022-12-06T04:26:19.060Z,100353.09
2022-12-06T04:31:37.408Z,100348.81
2022-12-06T04:36:57.792Z,100344.53
2022-12-06T04:42:16.299Z,100341.94
2022-12-06T04:47:17.254Z,100341.03
2022-12-06T04:52:19.536Z,100342.75
2022-12-06T04:57:20.331Z,100348.72
2022-12-06T05:02:21.174Z,100342.72
2022-12-06T05:07:23.303Z,100344.47
2022-12-06T05:12:24.082Z,100327.22
2022-12-06T05:17:24.918Z,100332.44
2022-12-06T05:22:27.076Z,100328.97
2022-12-06T05:27:31.607Z,100341.03
2022-12-06T05:32:35.727Z,100342.81
2022-12-06T05:37:37.920Z,100337.59
2022-12-06T05:42:40.945Z,100341.00
2022-12-06T05:47:41.770Z,100331.56
2022-12-06T05:52:43.944Z,100322.13
2022-12-06T05:57:47.413Z,100323.88
2022-12-06T06:02:50.081Z,100325.50
2022-12-06T06:07:52.415Z,100324.59
2022-12-06T06:12:53.915Z,100328.94
2022-12-06T06:17:55.168Z,100325.50
2022-12-06T06:22:57.420Z,100314.34
2022-12-06T06:27:58.268Z,100316.06
2022-12-06T06:32:59.043Z,100326.38
2022-12-06T06:38:01.774Z,100321.16
2022-12-06T06:43:18.286Z,100329.81
2022-12-06T06:48:19.347Z,100333.25
2022-12-06T06:53:21.751Z,100336.69
2022-12-06T06:58:22.693Z,100337.50
2022-12-06T07:03:24.848Z,100332.34
2022-12-06T07:08:27.843Z,100333.19
2022-12-06T07:13:29.883Z,100333.19
2022-12-06T07:18:31.014Z,100335.78
2022-12-06T07:23:34.416Z,100334.16
2022-12-06T07:28:36.765Z,100341.78
2022-12-06T07:33:37.890Z,100343.50
2022-12-06T07:38:40.267Z,100346.09
2022-12-06T07:43:58.596Z,100345.22
2022-12-06T07:48:59.382Z,100344.34
2022-12-06T07:54:02.082Z,100342.59
2022-12-06T07:59:03.343Z,100338.25
2022-12-06T08:04:06.268Z,100344.31
2022-12-06T08:09:09.411Z,100335.72
2022-12-06T08:14:12.213Z,100335.69
2022-12-06T08:19:13.070Z,100334.78
2022-12-06T08:24:15.534Z,100333.97
2022-12-06T08:29:16.875Z,100334.03
2022-12-06T08:34:18.227Z,100333.19
2022-12-06T08:39:20.477Z,100326.31
2022-12-06T08:44:21.549Z,100338.34
2022-12-06T08:49:26.283Z,100336.69
2022-12-06T08:54:29.135Z,100332.38
2022-12-06T08:59:30.031Z,100328.06
2022-12-06T09:04:31.073Z,100330.63
2022-12-06T09:09:33.316Z,100336.63
2022-12-06T09:14:34.190Z,100327.22
2022-12-06T09:19:35.304Z,100323.78
2022-12-06T09:24:37.575Z,100317.81
2022-12-06T09:29:40.791Z,100323.03
2022-12-06T09:34:42.205Z,100323.94
2022-12-06T09:39:53.648Z,100311.84
2022-12-06T09:45:20.258Z,100309.31
2022-12-06T09:50:27.595Z,100298.16
2022-12-06T09:55:49.873Z,100294.66
2022-12-06T10:00:59.384Z,100280.03
2022-12-06T10:06:02.905Z,100286.94
2022-12-06T10:11:16.158Z,100291.25
2022-12-06T10:16:28.107Z,100276.59
2022-12-06T10:21:41.684Z,100279.94
2022-12-06T10:26:50.047Z,100275.69
2022-12-06T10:31:58.263Z,100277.41
2022-12-06T10:37:08.526Z,100265.31
2022-12-06T10:42:16.666Z,100260.06
2022-12-06T10:47:22.491Z,100266.09
2022-12-06T10:52:35.987Z,100258.34
2022-12-06T10:57:45.825Z,100260.94
2022-12-06T11:02:56.171Z,100256.69
2022-12-06T11:08:04.359Z,100254.09
2022-12-06T11:13:21.335Z,100244.66
2022-12-06T11:18:23.481Z,100257.44
2022-12-06T11:23:33.724Z,100245.47
2022-12-06T11:28:39.100Z,100242.03
2022-12-06T11:33:40.087Z,100243.75
2022-12-06T11:38:44.051Z,100246.31
2022-12-06T11:43:46.606Z,100242.94
2022-12-06T11:48:48.066Z,100246.38
2022-12-06T11:54:01.672Z,100238.59
2022-12-06T11:59:22.544Z,100223.94
2022-12-06T12:04:43.044Z,100219.56
2022-12-06T12:09:55.092Z,100223.84
2022-12-06T12:14:59.364Z,100216.16
2022-12-06T12:20:04.044Z,100209.22
2022-12-06T12:25:22.437Z,100213.59
2022-12-06T12:30:28.335Z,100209.28
2022-12-06T12:35:29.365Z,100198.16
2022-12-06T12:40:35.190Z,100204.13
2022-12-06T12:45:38.071Z,100191.22
2022-12-06T12:50:38.964Z,100195.53
2022-12-06T12:55:41.864Z,100204.94
2022-12-06T13:00:49.565Z,100198.91
2022-12-06T13:05:51.764Z,100202.34
2022-12-06T13:10:59.235Z,100203.16
2022-12-06T13:16:10.632Z,100196.28
2022-12-06T13:21:22.691Z,100191.88
2022-12-06T13:26:27.434Z,100195.41
2022-12-06T13:31:36.430Z,100189.41
2022-12-06T13:36:37.412Z,100193.75
2022-12-06T13:42:13.662Z,100182.50
2022-12-06T13:47:50.376Z,100184.09
2022-12-06T13:53:05.408Z,100181.44
2022-12-06T13:58:40.942Z,100191.69
2022-12-06T14:03:43.444Z,100192.50
2022-12-06T14:08:46.375Z,100185.63
2022-12-06T14:13:48.895Z,100186.47
2022-12-06T14:18:52.146Z,100189.88
2022-12-06T14:23:53.336Z,100197.63
2022-12-06T14:28:56.575Z,100189.03
2022-12-06T14:33:59.082Z,100200.19
2022-12-06T14:39:02.814Z,100191.69
2022-12-06T14:44:12.336Z,100210.50
2022-12-06T14:49:38.440Z,100195.06
2022-12-06T14:54:43.984Z,100195.97
2022-12-06T15:00:14.370Z,100202.00
2022-12-06T15:05:34.984Z,100190.84
2022-12-06T15:10:35.814Z,100196.84
2022-12-06T15:15:39.862Z,100200.31
2022-12-06T15:20:42.096Z,100195.06
2022-12-06T15:25:42.888Z,100204.50
2022-12-06T15:30:43.826Z,100199.41
2022-12-06T15:35:46.188Z,100193.47
2022-12-06T15:40:50.696Z,100192.53
2022-12-06T15:45:51.561Z,100201.84
2022-12-06T15:50:55.169Z,100196.63
2022-12-06T15:55:56.045Z,100188.75
2022-12-06T16:00:58.929Z,100204.09
2022-12-06T16:06:01.090Z,100200.56
2022-12-06T16:11:17.125Z,100201.34
2022-12-06T16:16:20.202Z,100206.50
2022-12-06T16:21:25.820Z,100194.38
2022-12-06T16:26:26.611Z,100200.38
2022-12-06T16:31:27.944Z,100195.16
2022-12-06T16:36:32.052Z,100204.59
2022-12-06T16:41:35.066Z,100200.47
2022-12-06T16:46:37.337Z,100177.22
2022-12-06T16:51:39.479Z,100182.28
2022-12-06T16:56:41.817Z,100190.88
2022-12-06T17:01:49.415Z,100195.97
2022-12-06T17:06:51.685Z,100191.69
2022-12-06T17:12:06.629Z,100187.41
2022-12-06T17:17:07.842Z,100185.16
2022-12-06T17:22:12.794Z,100192.75
2022-12-06T17:27:14.884Z,100196.84
2022-12-06T17:32:16.043Z,100192.66
2022-12-06T17:37:18.258Z,100198.56
2022-12-06T17:42:36.806Z,100201.97
2022-12-06T17:47:37.596Z,100200.13
2022-12-06T17:52:39.798Z,100200.22
2022-12-06T17:57:40.658Z,100193.22
2022-12-06T18:02:41.669Z,100186.25
2022-12-06T18:07:44.025Z,100199.16
2022-12-06T18:12:44.979Z,100193.91
2022-12-06T18:17:45.793Z,100189.59
2022-12-06T18:22:48.526Z,100198.13
2022-12-06T18:27:49.779Z,100210.06
2022-12-06T18:32:50.658Z,100206.75
2022-12-06T18:37:52.954Z,100206.59
2022-12-06T18:42:53.963Z,100208.34
2022-12-06T18:47:55.001Z,100208.41
2022-12-06T18:52:57.127Z,100206.75
2022-12-06T18:57:58.491Z,100213.66
2022-12-06T19:03:00.607Z,100219.56
2022-12-06T19:08:03.383Z,100205.88
2022-12-06T19:13:06.100Z,100210.97
2022-12-06T19:18:07.085Z,100215.28
2022-12-06T19:23:09.264Z,100216.94
2022-12-06T19:28:10.201Z,100227.28
2022-12-06T19:33:11.167Z,100216.97
2022-12-06T19:38:13.367Z,100218.69
2022-12-06T19:43:32.000Z,100216.94
2022-12-06T19:48:32.883Z,100215.22
2022-12-06T19:53:37.581Z,100218.59
2022-12-06T19:58:38.903Z,100214.31
2022-12-06T20:03:39.957Z,100220.41
2022-12-06T20:08:42.569Z,100219.44
2022-12-06T20:13:43.491Z,100223.72
2022-12-06T20:18:44.350Z,100222.03
2022-12-06T20:23:46.650Z,100219.47
2022-12-06T20:28:49.009Z,100213.44
2022-12-06T20:33:50.553Z,100213.44
2022-12-06T20:38:53.831Z,100203.22
2022-12-06T20:43:54.695Z,100201.44
2022-12-06T20:48:56.498Z,100198.81
2022-12-06T20:54:00.101Z,100200.50
2022-12-06T20:59:02.962Z,100198.69
2022-12-06T21:04:04.265Z,100200.34
2022-12-06T21:09:06.844Z,100200.38
2022-12-06T21:14:07.622Z,100210.75
2022-12-06T21:19:11.808Z,100210.75
2022-12-06T21:24:15.856Z,100204.88
2022-12-06T21:29:17.851Z,100210.03
2022-12-06T21:34:19.363Z,100204.03
2022-12-06T21:39:21.511Z,100208.41
2022-12-06T21:44:22.453Z,100201.69
2022-12-06T21:49:23.390Z,100199.13
2022-12-06T21:54:25.567Z,100198.25
2022-12-06T21:59:26.930Z,100200.06
2022-12-06T22:04:27.721Z,100205.22
2022-12-06T22:09:29.931Z,100197.50
2022-12-06T22:14:30.999Z,100197.53
2022-12-06T22:19:31.920Z,100189.78
2022-12-06T22:24:34.354Z,100195.03
2022-12-06T22:29:35.163Z,100184.69
2022-12-06T22:34:35.957Z,100180.47
2022-12-06T22:39:38.123Z,100185.69
2022-12-06T22:44:38.897Z,100185.72
2022-12-06T22:49:39.670Z,100184.00
2022-12-06T22:54:41.867Z,100174.59
2022-12-06T22:59:42.664Z,100182.38
2022-12-06T23:04:43.467Z,100181.53
2022-12-06T23:09:45.758Z,100179.84
2022-12-06T23:14:46.746Z,100184.97
2022-12-06T23:19:47.657Z,100179.84
2022-12-06T23:24:51.575Z,100189.25
2022-12-06T23:29:52.420Z,100183.31
2022-12-06T23:34:53.225Z,100182.50
2022-12-06T23:39:55.439Z,100177.28
2022-12-06T23:44:56.203Z,100181.63
2022-12-06T23:49:56.969Z,100180.84
2022-12-06T23:54:59.742Z,100179.13
